Time;durP1;ratioP1;P1;durP2;ratioP2;P2;SDS_P1;SDS_P2;PMS_P1;PMS_P2;Temp;Humidity;BMP_temperature;BMP_pressure;BME280_temperature;BME280_humidity;BME280_pressure;Samples;Min_cycle;Max_cycle;Signal;HPM_P1;HPM_P2
2023/08/09 06:27:26;;;;;;;;;1.00;1.00;;;;;;;;4770619;29;8854;-89
2023/08/09 06:29:51;;;;;;;;;1.00;1.00;;;;;;;;4776118;29;8896;-89
2023/08/09 06:32:16;;;;;;;;;1.67;1.67;;;;;;;;4772537;30;9698;-90
2023/08/09 06:34:42;;;;;;;;;1.00;1.00;;;;;;;;4757113;30;8888;-91
2023/08/09 06:37:08;;;;;;;;;2.00;1.00;;;;;;;;4773022;30;9031;-94
2023/08/09 06:56:36;;;;;;;;;1.00;1.00;;;;;;;;5397273;24;8872;-96
2023/08/09 07:24:31;;;;;;;;;1.00;1.00;;;;;;;;4719429;30;8836;-96
2023/08/09 07:26:56;;;;;;;;;1.50;1.50;;;;;;;;4703007;30;8866;-96
2023/08/09 07:29:21;;;;;;;;;1.00;1.00;;;;;;;;4769346;29;8886;-95
2023/08/09 07:31:47;;;;;;;;;1.00;1.00;;;;;;;;4792859;29;8976;-95
2023/08/09 07:34:12;;;;;;;;;1.00;1.00;;;;;;;;4766898;29;8880;-95
2023/08/09 07:36:40;;;;;;;;;2.33;2.33;;;;;;;;4774916;29;8882;-96
2023/08/09 07:39:09;;;;;;;;;2.00;2.00;;;;;;;;4785303;29;8868;-94
2023/08/09 07:41:34;;;;;;;;;1.00;1.00;;;;;;;;4794264;29;8842;-95
2023/08/09 07:43:59;;;;;;;;;0.00;0.00;;;;;;;;4793357;29;8871;-95
2023/08/09 07:46:24;;;;;;;;;0.00;0.00;;;;;;;;4784521;29;8880;-95
2023/08/09 07:48:53;;;;;;;;;0.33;0.33;;;;;;;;4794011;29;8778;-95
2023/08/09 07:53:57;;;;;;;;;1.00;1.00;;;;;;;;5389864;24;8820;-96
2023/08/09 07:56:22;;;;;;;;;1.00;1.00;;;;;;;;4808416;29;8849;-96
2023/08/09 10:28:49;;;;;;;;;1.00;1.00;;;;;;;;5778106;24;8958;-96
2023/08/09 10:31:55;;;;;;;;;1.75;1.75;;;;;;;;4830918;29;9896;-94
2023/08/09 10:49:31;;;;;;;;;0.00;0.00;;;;;;;;5181636;24;8873;-96
2023/08/09 10:51:59;;;;;;;;;1.00;1.00;;;;;;;;4826337;29;8872;-96
2023/08/09 10:54:24;;;;;;;;;0.00;0.00;;;;;;;;4826690;29;9827;-96
2023/08/09 10:56:50;;;;;;;;;1.00;0.00;;;;;;;;4810423;29;8877;-95
2023/08/09 10:59:23;;;;;;;;;0.67;0.67;;;;;;;;4823951;29;8861;-96
2023/08/09 11:01:49;;;;;;;;;1.75;1.75;;;;;;;;4812168;29;8849;-96
2023/08/09 11:04:17;;;;;;;;;1.00;1.00;;;;;;;;4819677;29;8877;-96
2023/08/09 11:06:43;;;;;;;;;0.00;0.00;;;;;;;;4827162;29;8797;-96
2023/08/09 11:09:09;;;;;;;;;0.00;0.00;;;;;;;;4810239;29;8833;-96
2023/08/09 11:11:35;;;;;;;;;0.25;0.25;;;;;;;;4824708;29;10686;-96
2023/08/09 11:14:03;;;;;;;;;0.00;0.00;;;;;;;;4830944;29;8810;-96
2023/08/09 11:16:29;;;;;;;;;0.00;0.00;;;;;;;;4823724;29;8932;-96
2023/08/09 11:19:20;;;;;;;;;0.00;0.00;;;;;;;;4829332;29;8810;-97
2023/08/09 11:21:46;;;;;;;;;0.00;0.00;;;;;;;;4809936;29;8933;-96
2023/08/09 11:24:24;;;;;;;;;0.00;0.00;;;;;;;;4831684;29;8834;-97
2023/08/09 11:26:51;;;;;;;;;0.00;0.00;;;;;;;;4823498;29;8830;-96
2023/08/09 11:29:21;;;;;;;;;0.00;0.00;;;;;;;;4823631;29;8837;-96
2023/08/09 11:31:48;;;;;;;;;0.00;0.00;;;;;;;;4797574;29;8875;-96
2023/08/09 11:34:17;;;;;;;;;0.00;0.00;;;;;;;;4809382;29;8998;-96
2023/08/09 11:39:54;;;;;;;;;0.00;0.00;;;;;;;;4757306;29;9765;-96
2023/08/09 12:53:10;;;;;;;;;1.00;1.00;;;;;;;;1097555;27;10550;-96
2023/08/09 12:55:50;;;;;;;;;1.00;1.00;;;;;;;;4815345;29;8778;-96
2023/08/09 12:58:21;;;;;;;;;0.00;0.00;;;;;;;;4810382;29;8797;-96
2023/08/09 13:00:50;;;;;;;;;0.00;0.00;;;;;;;;4819786;29;8780;-96
2023/08/09 13:26:31;;;;;;;;;1.00;1.00;;;;;;;;5424478;24;8880;-96
2023/08/09 13:28:56;;;;;;;;;0.00;0.00;;;;;;;;4822593;29;9663;-96
2023/08/09 13:33:57;;;;;;;;;0.00;0.00;;;;;;;;5128250;24;8916;-96
2023/08/09 13:36:22;;;;;;;;;0.00;0.00;;;;;;;;4787519;29;8830;-96
2023/08/09 13:38:47;;;;;;;;;0.00;0.00;;;;;;;;4786733;29;8913;-96
2023/08/09 13:41:12;;;;;;;;;0.00;0.00;;;;;;;;4775328;29;8872;-96
2023/08/09 13:43:38;;;;;;;;;0.00;0.00;;;;;;;;4761011;29;8886;-96
2023/08/09 13:46:03;;;;;;;;;0.00;0.00;;;;;;;;4789129;29;8949;-96
2023/08/09 13:48:28;;;;;;;;;0.00;0.00;;;;;;;;4773814;30;8888;-96
2023/08/09 13:50:54;;;;;;;;;1.33;0.00;;;;;;;;4773536;30;9062;-96
2023/08/09 13:53:19;;;;;;;;;0.33;0.33;;;;;;;;4763283;30;8861;-96
2023/08/09 13:55:45;;;;;;;;;0.00;0.00;;;;;;;;4781366;29;8832;-96
2023/08/09 13:58:11;;;;;;;;;0.00;0.00;;;;;;;;4778795;29;8835;-96
2023/08/09 14:00:37;;;;;;;;;0.00;0.00;;;;;;;;4773087;30;8842;-96
2023/08/09 14:03:04;;;;;;;;;0.00;0.00;;;;;;;;4773689;30;8915;-96
2023/08/09 14:05:29;;;;;;;;;0.00;0.00;;;;;;;;4773404;30;8840;-96
2023/08/09 14:07:55;;;;;;;;;0.00;0.00;;;;;;;;4781069;29;8844;-96
2023/08/09 14:10:20;;;;;;;;;0.67;0.67;;;;;;;;4787353;29;8915;-96
2023/08/09 14:12:45;;;;;;;;;1.00;1.00;;;;;;;;4763616;29;9211;-96
2023/08/09 14:15:11;;;;;;;;;0.67;0.67;;;;;;;;4776870;29;8835;-96
2023/08/09 14:17:36;;;;;;;;;0.33;0.33;;;;;;;;4778708;29;8866;-96
2023/08/09 14:20:01;;;;;;;;;1.00;1.00;;;;;;;;4789053;29;8870;-96
2023/08/09 14:22:27;;;;;;;;;0.00;0.00;;;;;;;;4787175;29;8831;-96
2023/08/09 14:24:52;;;;;;;;;0.00;0.00;;;;;;;;4777545;29;8968;-96
2023/08/09 14:27:17;;;;;;;;;1.00;1.00;;;;;;;;4764731;29;9691;-96
2023/08/09 14:29:45;;;;;;;;;0.00;0.00;;;;;;;;4766695;29;9097;-96
2023/08/09 14:32:10;;;;;;;;;0.25;0.25;;;;;;;;4785704;29;8895;-96
2023/08/09 14:34:36;;;;;;;;;0.00;0.00;;;;;;;;4759902;29;8849;-96
2023/08/09 14:37:01;;;;;;;;;0.00;0.00;;;;;;;;4757720;29;8875;-96
2023/08/09 14:39:27;;;;;;;;;0.00;0.00;;;;;;;;4770778;29;8873;-96
2023/08/09 14:41:52;;;;;;;;;0.33;0.33;;;;;;;;4786637;29;8977;-96
2023/08/09 14:44:17;;;;;;;;;0.00;0.00;;;;;;;;4775725;29;8831;-96
2023/08/09 14:46:42;;;;;;;;;0.00;0.00;;;;;;;;4790239;29;8886;-96
2023/08/09 14:49:08;;;;;;;;;0.00;0.00;;;;;;;;4766574;30;8885;-96
2023/08/09 14:51:34;;;;;;;;;0.00;0.00;;;;;;;;4785629;29;8839;-96
2023/08/09 14:53:59;;;;;;;;;0.00;0.00;;;;;;;;4782627;29;9648;-96
2023/08/09 14:56:24;;;;;;;;;0.00;0.00;;;;;;;;4775419;29;8871;-96
2023/08/09 14:58:53;;;;;;;;;0.00;0.00;;;;;;;;4789443;29;8981;-96
2023/08/09 15:01:19;;;;;;;;;0.00;0.00;;;;;;;;4762912;29;8823;-96
2023/08/09 15:03:44;;;;;;;;;1.00;1.00;;;;;;;;4772886;29;8837;-96
2023/08/09 15:06:09;;;;;;;;;1.00;1.00;;;;;;;;4776969;29;8905;-96
2023/08/09 15:08:34;;;;;;;;;2.00;0.67;;;;;;;;4772308;29;9001;-96
2023/08/09 15:11:01;;;;;;;;;0.33;0.33;;;;;;;;4760673;29;8893;-96
2023/08/09 15:13:26;;;;;;;;;0.00;0.00;;;;;;;;4763801;29;8835;-96
2023/08/09 15:15:51;;;;;;;;;0.00;0.00;;;;;;;;4776723;29;9723;-96
2023/08/09 15:18:16;;;;;;;;;0.00;0.00;;;;;;;;4772044;29;8875;-96
2023/08/09 15:20:42;;;;;;;;;1.00;1.00;;;;;;;;4759839;29;8869;-96
2023/08/09 15:23:07;;;;;;;;;2.00;0.00;;;;;;;;4782797;29;8941;-96
2023/08/09 15:25:32;;;;;;;;;0.00;0.00;;;;;;;;4772514;30;8911;-96
2023/08/09 15:28:00;;;;;;;;;0.00;0.00;;;;;;;;4766560;29;8877;-96
2023/08/09 15:30:25;;;;;;;;;0.50;0.50;;;;;;;;4789444;29;8803;-96
2023/08/09 15:32:51;;;;;;;;;1.00;1.00;;;;;;;;4768611;29;8863;-96
2023/08/09 15:35:17;;;;;;;;;0.00;0.00;;;;;;;;4778652;29;8912;-96
2023/08/09 15:37:46;;;;;;;;;0.00;0.00;;;;;;;;4776645;29;8840;-96
2023/08/09 15:40:15;;;;;;;;;0.00;0.00;;;;;;;;4790478;29;8788;-96
2023/08/09 15:42:43;;;;;;;;;0.25;0.25;;;;;;;;4784533;29;8822;-96
2023/08/09 15:45:09;;;;;;;;;0.75;0.75;;;;;;;;4775930;29;8976;-96
2023/08/09 15:47:34;;;;;;;;;1.00;1.00;;;;;;;;4789676;29;8820;-96
2023/08/09 15:49:59;;;;;;;;;0.00;0.00;;;;;;;;4786924;29;8828;-96
2023/08/09 15:52:25;;;;;;;;;0.00;0.00;;;;;;;;4787048;29;9608;-96
2023/08/09 15:54:50;;;;;;;;;1.00;1.00;;;;;;;;4781630;29;8830;-96
2023/08/09 15:57:15;;;;;;;;;0.00;0.00;;;;;;;;4780666;29;8883;-96
2023/08/09 15:59:43;;;;;;;;;2.00;1.00;;;;;;;;4772897;29;8853;-96
2023/08/09 16:02:08;;;;;;;;;0.00;0.00;;;;;;;;4783421;29;8816;-96
2023/08/09 16:04:33;;;;;;;;;0.00;0.00;;;;;;;;4778355;29;8864;-96
2023/08/09 16:06:59;;;;;;;;;1.00;1.00;;;;;;;;4759954;29;8900;-96
2023/08/09 16:09:24;;;;;;;;;0.00;0.00;;;;;;;;4766008;29;8835;-96
2023/08/09 16:11:50;;;;;;;;;0.00;0.00;;;;;;;;4792179;29;9719;-96
2023/08/09 16:14:15;;;;;;;;;0.67;0.67;;;;;;;;4792201;29;8929;-96
2023/08/09 16:16:40;;;;;;;;;0.00;0.00;;;;;;;;4789778;29;8847;-96
2023/08/09 16:19:06;;;;;;;;;0.00;0.00;;;;;;;;4782802;29;8846;-96
2023/08/09 16:21:32;;;;;;;;;0.00;0.00;;;;;;;;4788872;29;9614;-96
2023/08/09 16:23:58;;;;;;;;;0.00;0.00;;;;;;;;4782990;29;8912;-96
2023/08/09 16:26:23;;;;;;;;;0.00;0.00;;;;;;;;4758944;30;8830;-96
2023/08/09 16:28:49;;;;;;;;;0.00;0.00;;;;;;;;4785049;29;8870;-96
2023/08/09 16:31:14;;;;;;;;;0.00;0.00;;;;;;;;4774721;29;8874;-96
2023/08/09 16:33:40;;;;;;;;;0.00;0.00;;;;;;;;4786631;29;8855;-96
2023/08/09 16:36:05;;;;;;;;;0.00;0.00;;;;;;;;4780238;29;8854;-96
2023/08/09 16:38:31;;;;;;;;;0.00;0.00;;;;;;;;4767206;29;8851;-96
2023/08/09 16:40:56;;;;;;;;;1.00;1.00;;;;;;;;4780328;29;9591;-96
2023/08/09 16:43:21;;;;;;;;;0.00;0.00;;;;;;;;4783889;29;8984;-96
2023/08/09 16:45:47;;;;;;;;;0.00;0.00;;;;;;;;4784291;29;8838;-96
2023/08/09 16:48:12;;;;;;;;;0.00;0.00;;;;;;;;4779284;29;8932;-96
2023/08/09 16:50:37;;;;;;;;;0.00;0.00;;;;;;;;4784355;29;8908;-96
2023/08/09 16:53:02;;;;;;;;;0.00;0.00;;;;;;;;4779679;29;8851;-96
2023/08/09 16:55:28;;;;;;;;;0.00;0.00;;;;;;;;4758271;30;8880;-96
2023/08/09 16:57:53;;;;;;;;;0.00;0.00;;;;;;;;4768863;29;8858;-96
2023/08/09 17:00:19;;;;;;;;;0.00;0.00;;;;;;;;4784284;29;8858;-96
2023/08/09 17:02:44;;;;;;;;;0.00;0.00;;;;;;;;4785091;29;8871;-96
2023/08/09 17:05:13;;;;;;;;;0.00;0.00;;;;;;;;4771046;29;8944;-96
2023/08/09 17:07:39;;;;;;;;;0.00;0.00;;;;;;;;4789195;29;8904;-96
2023/08/09 17:10:04;;;;;;;;;1.00;1.00;;;;;;;;4783704;29;8950;-96
2023/08/09 17:12:30;;;;;;;;;0.33;0.33;;;;;;;;4790241;29;8855;-96
2023/08/09 17:14:55;;;;;;;;;0.00;0.00;;;;;;;;4790514;29;8861;-96
2023/08/09 17:17:20;;;;;;;;;0.00;0.00;;;;;;;;4789825;29;8855;-96
2023/08/09 17:19:46;;;;;;;;;1.00;0.00;;;;;;;;4774857;29;8867;-96
2023/08/09 17:22:11;;;;;;;;;1.00;1.00;;;;;;;;4770532;29;8886;-96
2023/08/09 17:24:36;;;;;;;;;0.00;0.00;;;;;;;;4786609;29;8863;-96
2023/08/09 17:27:01;;;;;;;;;1.00;1.00;;;;;;;;4791211;29;8839;-96
2023/08/09 17:29:27;;;;;;;;;0.00;0.00;;;;;;;;4788340;29;8938;-96
2023/08/09 17:31:52;;;;;;;;;0.00;0.00;;;;;;;;4789540;29;8855;-96
2023/08/09 17:34:17;;;;;;;;;0.00;0.00;;;;;;;;4775128;29;9582;-96
2023/08/09 17:36:45;;;;;;;;;0.00;0.00;;;;;;;;4783717;29;9766;-96
2023/08/09 17:39:10;;;;;;;;;1.00;1.00;;;;;;;;4783449;29;8836;-96
2023/08/09 17:41:36;;;;;;;;;0.33;0.33;;;;;;;;4791262;29;9604;-96
2023/08/09 17:44:01;;;;;;;;;0.00;0.00;;;;;;;;4790563;29;8859;-96
2023/08/09 17:46:26;;;;;;;;;0.00;0.00;;;;;;;;4787526;29;8926;-96
2023/08/09 17:48:52;;;;;;;;;0.00;0.00;;;;;;;;4787170;29;8858;-96
2023/08/09 17:51:19;;;;;;;;;1.00;1.00;;;;;;;;4789919;29;8885;-96
2023/08/09 17:53:44;;;;;;;;;0.00;0.00;;;;;;;;4772133;29;9218;-96
2023/08/09 17:56:09;;;;;;;;;0.00;0.00;;;;;;;;4778729;29;8856;-96
2023/08/09 17:58:35;;;;;;;;;0.00;0.00;;;;;;;;4781823;29;8830;-96
2023/08/09 18:01:00;;;;;;;;;0.00;0.00;;;;;;;;4783800;29;8894;-96
2023/08/09 18:03:25;;;;;;;;;0.33;0.33;;;;;;;;4763166;29;8839;-96
2023/08/09 18:05:51;;;;;;;;;0.00;0.00;;;;;;;;4790893;29;9627;-96
2023/08/09 18:08:16;;;;;;;;;0.00;0.00;;;;;;;;4783817;29;8841;-96
2023/08/09 18:10:41;;;;;;;;;1.00;1.00;;;;;;;;4790434;29;8871;-96
2023/08/09 18:13:06;;;;;;;;;1.00;1.00;;;;;;;;4791405;29;8921;-96
2023/08/09 18:15:32;;;;;;;;;0.00;0.00;;;;;;;;4767901;29;9532;-96
2023/08/09 18:17:57;;;;;;;;;0.00;0.00;;;;;;;;4781595;29;8872;-96
2023/08/09 18:20:22;;;;;;;;;0.00;0.00;;;;;;;;4766416;29;8858;-96
2023/08/09 18:22:54;;;;;;;;;0.33;0.33;;;;;;;;4777787;29;8870;-96
2023/08/09 18:25:21;;;;;;;;;0.00;0.00;;;;;;;;4785137;29;8825;-96
2023/08/09 18:27:48;;;;;;;;;0.00;0.00;;;;;;;;4769152;29;8845;-96
2023/08/09 18:40:59;;;;;;;;;0.00;0.00;;;;;;;;5785649;24;8823;-96
2023/08/09 18:43:36;;;;;;;;;0.00;0.00;;;;;;;;4816938;29;9388;-96
2023/08/09 18:46:02;;;;;;;;;1.00;1.00;;;;;;;;4835896;29;9767;-94
2023/08/09 18:48:42;;;;;;;;;1.00;1.00;;;;;;;;4833885;29;8821;-95
2023/08/09 18:51:21;;;;;;;;;;;;;;;;;;;;;
2023/08/09 18:53:46;;;;;;;;;0.75;0.75;;;;;;;;4835448;29;35491;-94
2023/08/09 18:56:11;;;;;;;;;1.00;1.00;;;;;;;;4819152;29;8835;-94
2023/08/09 18:58:37;;;;;;;;;1.67;1.67;;;;;;;;4819630;29;8867;-96
2023/08/09 19:01:02;;;;;;;;;1.00;1.00;;;;;;;;4835550;29;8843;-96
2023/08/09 19:08:47;;;;;;;;;2.75;2.75;;;;;;;;5440215;24;8863;-96
2023/08/09 19:11:12;;;;;;;;;1.67;1.67;;;;;;;;4790509;29;9702;-96
2023/08/09 19:13:38;;;;;;;;;1.00;1.00;;;;;;;;4790754;29;8908;-96
2023/08/09 19:16:06;;;;;;;;;2.00;2.00;;;;;;;;4848573;24;8845;-95
2023/08/09 19:18:34;;;;;;;;;5.00;4.00;;;;;;;;4798986;29;8881;-95
2023/08/09 19:20:59;;;;;;;;;8.25;8.25;;;;;;;;4767439;29;8928;-94
2023/08/09 19:23:24;;;;;;;;;4.67;4.67;;;;;;;;4790251;29;8883;-93
2023/08/09 19:25:51;;;;;;;;;2.00;2.00;;;;;;;;4773259;29;8839;-93
2023/08/09 19:28:16;;;;;;;;;0.75;0.75;;;;;;;;4789500;29;8855;-94
2023/08/09 19:30:42;;;;;;;;;1.00;1.00;;;;;;;;4773696;29;8871;-94
2023/08/09 19:33:08;;;;;;;;;1.00;1.00;;;;;;;;4790134;29;8856;-94
